Highlands Peak, California Weather observations

Data are for observation ending at time listed.
 Day   Time    Ave.   Ave.  Ave.  Vector   Max.   Stn.    Total    Solar   Ave.  
  of    of     Air    Rel.  Wind   Wind    Wind   Baro.  Precip.   Rad.    Soil  
Year   Day     Temp.  Hum.  Speed  Dir.    Gust   Pres.                    Temp. 
2015   (PST)    F      %     mph   deg.    mph     mb.     in.     W/m2     F   
------------------------------------------------------------------------------
 146    2:50   43.6    98    2.2    26      4.3   927.8    0.00       0    65.3
 146    3:00   43.7    98    2.1     7      3.5   927.9    0.00       0    65.1
 146    3:10   42.6    98    2.5     4      3.4   927.9    0.00       0    65.0
 146    3:20   42.4    98    3.7   294      5.3   927.9    0.00       0    64.8
 146    3:30   42.8    98    3.5   281      5.0   928.0    0.00       0    64.7
 146    3:40   42.9    98    2.8   290      4.5   928.0    0.00       0    64.5
 146    3:50   42.9    98    2.7   302      4.2   928.0    0.00       0    64.4
 146    4:00   42.8    98    2.8   274      3.9   928.0    0.00       0    64.3
 146    4:10   43.1    98    2.9   252      4.8   928.1    0.00       0    64.1
 146    4:20   43.1    98    2.6   286      4.0   928.2    0.00       0    64.0
 146    4:30   42.9    98    3.8   295      5.8   928.2    0.00       0    63.8
 146    4:40   42.8    98    4.2   305      6.0   928.2    0.00       0    63.7
 146    4:50   42.9    98    4.9   303      6.5   928.3    0.00       1    63.6
 146    5:00   42.9    98    4.2   299      6.0   928.3    0.00       3    63.5
 146    5:10   43.0    98    4.3   293      6.4   928.4    0.01       5    63.4
 146    5:20   43.1    98    4.2   316      6.4   928.5    0.00       7    63.2
 146    5:30   43.2    98    2.2   316      4.7   928.6    0.00      10    63.1
 146    5:40   42.9    98    3.5   342      4.9   928.6    0.00      13    63.0
 146    5:50   42.8    98    3.3   321      4.5   928.5    0.00      19    62.9
 146    6:00   42.7    98    3.7   323      5.3   928.4    0.00      85    62.8
 146    6:10   43.1    98    4.1   308      5.3   928.4    0.00     122    62.7
 146    6:20   43.3    98    3.9   290      5.6   928.6    0.00     124    62.6
 146    6:30   43.8    98    2.9   287      5.4   928.7    0.00     142    62.5
 146    6:40   44.1    98    3.7   294      5.7   928.9    0.00     138    62.4
 146    6:50   44.1    98    3.0   287      4.8   928.9    0.00     145    62.3
 146    7:00   44.5    98    2.5   315      4.4   928.9    0.00     193    62.3
 146    7:10   44.4    98    2.4   300      4.1   928.9    0.00     211    62.2
 146    7:20   44.7    98    2.3   280      3.8   928.9    0.00     230    62.1
 146    7:30   44.9    98    1.7   287      2.6   929.0    0.00     278    62.1
 146    7:40   45.1    98    2.2   311      3.7   929.0    0.00     292    62.0
 146    7:50   45.4    98    1.9   282      3.5   929.0    0.00     303    62.0
 146    8:00   45.5    98    1.2   225      2.9   929.2    0.00     317    62.0
 146    8:10   46.2    98    2.0   202      4.2   929.3    0.00     368    62.0
 146    8:20   46.9    98    1.5   273      3.8   929.3    0.00     399    62.1
 146    8:30   46.5    98    3.3   278      5.2   929.4    0.00     415    62.0
 146    8:40   46.1    98    2.3   270      4.1   929.5    0.00     362    62.1
 146    8:50   46.5    98    2.4   282      4.7   929.5    0.00     345    62.2
 146    9:00   46.5    98    3.0   280      4.5   929.6    0.00     357    62.2
 146    9:10   46.7    98    2.3   285      4.4   929.5    0.00     387    62.2
 146    9:20   47.0    98    3.2   285      5.3   929.5    0.00     418    62.3
 146    9:30   46.6    98    3.1   276      5.1   929.6    0.00     376    62.4
 146    9:40   47.2    98    1.0   300      2.8   929.7    0.00     462    62.5
 146    9:50   47.8    98    2.1   295      4.5   929.6    0.00     551    62.5
 146   10:00   47.7    98    2.0   293      3.7   929.7    0.00     591    62.6
 146   10:10   48.6    98    1.4   246      3.3   929.7    0.00     683    62.7
 146   10:20   49.0    98    2.5   264      4.6   929.8    0.00     633    62.8
 146   10:30   48.5    98    3.0   274      4.7   929.8    0.00     581    62.9
 146   10:40   48.8    98    2.7   288      4.6   929.8    0.00     582    63.1
 146   10:50   48.8    98    2.3   281      3.9   929.8    0.00     628    63.2
 146   11:00   49.3    98    2.7   267      4.6   929.8    0.00     717    63.4
 146   11:10   50.0    98    2.9   274      5.1   929.8    0.00     729    63.5
 146   11:20   50.3    98    3.2   285      5.9   929.8    0.00     783    63.7
 146   11:30   49.8    98    3.2   280      5.2   929.8    0.00     983    63.9
 146   11:40   50.3    98    3.1   293      5.7   929.8    0.00    1074    64.1
 146   11:50   50.9    98    3.3   299      5.6   929.7    0.00    1087    64.3
 146   12:00   51.4    98    2.9   298      6.5   929.6    0.00    1080    64.5
 146   12:10   52.5    97    3.6   278      5.4   929.6    0.00    1088    64.7
 146   12:20   52.4    94    3.0   277      6.6   929.7    0.00    1066    64.8
 146   12:30   52.4    92    3.0   293      5.9   929.7    0.00     987    64.9
 146   12:40   53.0    89    3.3   278      6.7   929.7    0.00    1008    65.0
 146   12:50   52.3    88    4.3   280      6.7   929.7    0.00     928    65.1
 146   13:00   51.1    89    4.4   277      6.9   929.7    0.00     869    65.3
 146   13:10   50.5    90    3.6   276      5.7   929.7    0.00     811    65.5
 146   13:20   50.8    89    3.2   296      6.9   929.6    0.00     965    65.7
 146   13:30   51.4    87    4.1   277      6.6   929.6    0.00     834    65.9
 146   13:40   50.9    88    3.7   305      7.0   929.6    0.00     979    66.1
 146   13:50   51.8    86    4.3   291      6.7   929.5    0.00     811    66.4
 146   14:00   51.6    87    3.8   294      6.4   929.5    0.00     886    66.7
 146   14:10   51.9    87    3.8   288      6.4   929.4    0.00     900    66.9
 146   14:20   52.2    86    3.4   279      5.9   929.4    0.00     768    67.2
 146   14:30   51.6    88    4.0   278      6.3   929.4    0.00     583    67.6
 146   14:40   50.6    89    3.8   279      6.5   929.3    0.00     586    67.8
 146   14:50   51.0    88    3.4   284      6.4   929.3    0.00     608    68.1
 146   15:00   51.3    86    4.0   276      6.4   929.3    0.00     543    68.3
 146   15:10   50.9    86    3.9   283      6.4   929.3    0.00     690    68.6
 146   15:20   51.9    84    4.7   283      6.9   929.3    0.00     700    68.8
 146   15:30   52.5    81    3.7   280      6.9   929.3    0.00     729    69.0
 146   15:40   52.5    81    3.0   281      6.2   929.2    0.00     730    69.2
 146   15:50   54.0    78    3.8   284      7.0   929.3    0.00     682    69.3
 146   16:00   54.6    76    3.3   292      5.6   929.3    0.00     619    69.5
 146   16:10   54.4    77    3.1   302      5.8   929.3    0.00     601    69.7
 146   16:20   55.8    74    1.8   305      3.9   929.3    0.00     547    69.9
 146   16:30   55.2    75    3.2   304      5.0   929.2    0.00     536    70.0
 146   16:40   55.3    74    2.5   292      4.9   929.2    0.00     455    70.2
 146   16:50   55.1    75    3.5   291      6.2   929.2    0.00     481    70.3
 146   17:00   53.5    78    4.2   291      7.5   929.2    0.00     414    70.5
 146   17:10   52.3    81    3.4   293      7.0   929.1    0.00     416    70.6
 146   17:20   51.6    82    3.5   291      5.9   929.0    0.00     293    70.7
 146   17:30   51.0    83    3.2   274      6.1   929.0    0.00     262    70.8
 146   17:40   50.5    84    1.9   274      4.0   928.9    0.00     257    70.8
 146   17:50   50.2    84    2.6   285      4.2   928.9    0.00     200    70.9
 146   18:00   48.8    88    2.0   272      4.1   928.9    0.00     129    70.9
 146   18:10   47.9    90    1.6   269      3.7   929.0    0.00     103    70.9
 146   18:20   47.4    92    2.4   275      3.9   929.0    0.00      71    70.9
 146   18:30   46.9    92    3.1   286      6.1   929.0    0.00      49    70.8
 146   18:40   45.9    94    4.2   279      6.9   929.0    0.00      34    70.8
 146   18:50   45.6    95    3.4   284      4.9   929.0    0.00      26    70.7
 146   19:00   45.3    96    3.1   291      4.3   928.9    0.00      14    70.6
 146   19:10   45.2    96    3.0   293      5.3   928.9    0.00       8    70.5
 146   19:20   45.1    97    2.3   291      3.4   928.9    0.00       4    70.4
 146   19:30   44.9    97    1.6   272      2.4   928.8    0.00       1    70.3
 146   19:40   44.8    97    0.9   298      2.2   928.8    0.00       0    70.2
 146   19:50   44.6    97    1.7   352      3.8   928.8    0.00       0    70.1
 146   20:00   44.4    97    5.3    68      8.3   928.6    0.00       0    69.9
 146   20:10   46.2    95    3.1    80      5.9   928.7    0.00       0    69.8
 146   20:20   46.4    90    4.7    79      5.8   928.6    0.00       0    69.6
 146   20:30   51.9    69    4.7    75      7.7   928.6    0.00       0    69.3
 146   20:40   56.1    61    7.4    84      9.4   928.6    0.00       0    69.1
 146   20:50   57.0    59    5.4    98      7.6   928.7    0.00       0    68.9
 146   21:00   56.5    62    3.7    92      6.3   928.8    0.00       0    68.8
 146   21:10   54.8    65    4.6    91      7.5   928.9    0.00       0    68.7
 146   21:20   54.9    64    1.5   165      2.6   929.0    0.00       0    68.5
 146   21:30   55.2    55    2.4   267      4.2   929.2    0.00       0    68.4
 146   21:40   52.3    57    1.6   306      3.0   929.3    0.00       0    68.3
 146   21:50   50.1    66    1.4   330      2.8   929.3    0.00       0    68.1
 146   22:00   45.5    86    2.6   346      4.4   929.3    0.00       0    67.9
 146   22:10   45.4    88    5.9    72      7.7   929.1    0.00       0    67.8
 146   22:20   51.8    68    6.2    82      7.5   929.0    0.00       0    67.5
 146   22:30   54.8    60    5.9    58      8.3   929.0    0.00       0    67.3
 146   22:40   50.3    74    4.4    81      8.3   929.1    0.00       0    67.1
 146   22:50   45.0    88    2.8    30      5.0   929.1    0.00       0    67.0
 146   23:00   43.2    95    2.8   308      4.9   929.1    0.00       0    66.9
 146   23:10   43.3    96    4.7   272      7.5   929.3    0.00       0    66.7
 146   23:20   43.7    97    4.0   318      6.3   929.4    0.00       0    66.6
 146   23:30   43.7    97    2.6   315      3.6   929.3    0.00       0    66.5
 146   23:40   43.4    97    1.8   258      3.0   929.2    0.00       0    66.3
 146   23:50   43.2    98    1.2   157      2.1   929.1    0.00       0    66.2
 147    0:00   42.8    98    3.5   165      6.1   929.0    0.00       0    66.1
 147    0:10   43.8    98    1.9   231      4.6   928.9    0.00       0    65.9
 147    0:20   44.3    98    1.7    52      3.8   928.9    0.00       0    65.8
 147    0:30   44.1    98    2.8    35      4.0   928.9    0.00       0    65.6
 147    0:40   43.3    98    3.0    11      4.4   928.9    0.00       0    65.5
 147    0:50   44.7    97    4.2   336      5.0   928.8    0.00       0    65.3
 147    1:00   46.9    92    3.6    36      5.4   928.8    0.00       0    65.2
 147    1:10   48.9    83    4.3    70      7.5   928.7    0.00       0    65.0
 147    1:20   53.3    66    8.1    84     11.5   928.5    0.00       0    64.7
 147    1:30   56.9    57    8.3    85     12.1   928.5    0.00       0    64.3
 147    1:40   56.6    54    7.2    70      8.7   928.6    0.00       0    64.3
 147    1:50   59.0    49    8.7    80     11.5   928.4    0.00       0    64.0
 147    2:00   59.8    48    8.9    80     11.5   928.5    0.00       0    63.8
 147    2:10   59.2    49    7.8    82     11.4   928.4    0.00       0    63.5
 147    2:20   58.9    49    7.2    71      9.0   928.4    0.00       0    63.5
 147    2:30   58.9    49    2.6   142      6.4   928.5    0.00       0    63.5
 147    2:40   55.5    54    3.2   186      5.3   928.6    0.00       0    63.5

Return to Highlands Peak graphs page.


Western Regional Climate Center,wrcc@dri.edu